Terminal Aerodrome Forecast
Issued by NWS Rapid City, SD

Home | Current Version | Previous Version | Graphics & Text | Print | Product List | Glossary On
Versions: 1 2 3 4 5 6 7 8 9 10 11 12 13 14 15 16 17 18 19
436
FTUS43 KUNR 222327 CCA
TAFRAP
TAF COR
KRAP 222327Z 2300/2324 34013KT P6SM VCSH SCT090 BKN150
     FM230100 34011KT P6SM SCT100 BKN150
     FM232000 35018G28KT P6SM BKN035=

USA.gov is the U.S. government's official web portal to all federal, state and local government web resources and services.